This is the latest recevied weather packets stored in our database for station/object KB1YYC. If no packets are shown the sender has not sent any weather packets the latest 1 day(s).
| Time | Temp. | Humidity | Pressure | Rain* | Wind** | Luminosity | Snow |
|---|---|---|---|---|---|---|---|
| 1777987583 | 20° C | 50% | 1008.4 hPa | 0 mm | 0 m/s | 527 W/m² | - |
| 1777987281 | 19.44° C | 51% | 1008.2 hPa | 0 mm | 0.89 m/s, 244° | 519 W/m² | - |
| 1777986978 | 19.44° C | 50% | 1008.5 hPa | 0 mm | 0.89 m/s, 255° | 515 W/m² | - |
| 1777986676 | 19.44° C | 51% | 1008.8 hPa | 0 mm | 0 m/s | 168 W/m² | - |
| 1777986374 | 18.89° C | 51% | 1008.5 hPa | 0 mm | 1.34 m/s, 226° | 614 W/m² | - |
| 1777986072 | 18.33° C | 52% | 1008.7 hPa | 0 mm | 1.34 m/s, 223° | 490 W/m² | - |
| 1777985768 | 18.89° C | 51% | 1008.6 hPa | 0 mm | 1.34 m/s, 218° | 429 W/m² | - |
| 1777985465 | 18.89° C | 51% | 1008.7 hPa | 0 mm | 0.45 m/s, 290° | 191 W/m² | - |
| 1777985161 | 18.89° C | 51% | 1008.6 hPa | 0 mm | 1.34 m/s, 286° | 412 W/m² | - |
| 1777984858 | 18.33° C | 53% | 1008.7 hPa | 0 mm | 0.89 m/s, 265° | 444 W/m² | - |
| 1777984554 | 18.33° C | 52% | 1008.6 hPa | 0 mm | 0.89 m/s, 260° | 433 W/m² | - |
| 1777984250 | 18.33° C | 53% | 1008.2 hPa | 0 mm | 0.89 m/s, 273° | 462 W/m² | - |
| 1777983947 | 17.22° C | 58% | 1008.1 hPa | 0 mm | 0 m/s | 428 W/m² | - |
| 1777983644 | 17.22° C | 58% | 1008.2 hPa | 0 mm | 0.89 m/s, 221° | 418 W/m² | - |
| 1777983341 | 16.67° C | 59% | 1008.1 hPa | 0 mm | 0.45 m/s, 270° | 349 W/m² | - |
| 1777983038 | 16.11° C | 59% | 1008.4 hPa | 0 mm | 0.45 m/s, 255° | 326 W/m² | - |
| 1777982734 | 15.56° C | 61% | 1008.4 hPa | 0 mm | 0.45 m/s, 261° | 310 W/m² | - |
| 1777982430 | 15° C | 62% | 1008.2 hPa | 0 mm | 0.45 m/s, 242° | 64 W/m² | - |
| 1777982124 | 15° C | 63% | 1008.3 hPa | 0 mm | 0.89 m/s, 255° | 59 W/m² | - |
| 1777981822 | 14.44° C | 63% | 1008.5 hPa | 0 mm | 0.45 m/s, 257° | 61 W/m² | - |
| 1777981519 | 13.89° C | 65% | 1008.7 hPa | 0 mm | 0.89 m/s, 225° | 57 W/m² | - |
| 1777981215 | 13.89° C | 67% | 1008.8 hPa | 0 mm | 0 m/s | 55 W/m² | - |
| 1777980912 | 13.33° C | 66% | 1008.7 hPa | 0 mm | 0.45 m/s, 263° | 57 W/m² | - |
| 1777980608 | 13.33° C | 69% | 1008.6 hPa | 0 mm | 0.45 m/s, 251° | 58 W/m² | - |
| 1777980304 | 12.78° C | 70% | 1008.5 hPa | 0 mm | 0.45 m/s, 245° | 56 W/m² | - |
* Rain latest hour (hover to see other rain measurements)
** Current wind speed in m/s (hover to see current wind gust speed)